createdAt,value
2022-08-25T00:00:41.999Z,99863.31
2022-08-25T00:01:54.227Z,99868.91
2022-08-25T00:02:58.162Z,99852.88
2022-08-25T00:04:01.899Z,99857.81
2022-08-25T00:05:04.737Z,99864.06
2022-08-25T00:06:07.464Z,99857.56
2022-08-25T00:07:09.117Z,99860.00
2022-08-25T00:08:10.630Z,99868.09
2022-08-25T00:09:14.365Z,99858.81
2022-08-25T00:10:15.955Z,99868.19
2022-08-25T00:11:22.908Z,99859.41
2022-08-25T00:12:24.520Z,99863.03
2022-08-25T00:13:26.119Z,99865.81
2022-08-25T00:14:31.641Z,99850.31
2022-08-25T00:15:33.902Z,99861.47
2022-08-25T00:16:35.545Z,99857.09
2022-08-25T00:17:37.094Z,99863.50
2022-08-25T00:18:40.684Z,99859.28
2022-08-25T00:19:42.260Z,99864.81
2022-08-25T00:20:48.827Z,99864.13
2022-08-25T00:21:50.994Z,99855.28
2022-08-25T00:22:52.889Z,99858.47
2022-08-25T00:23:54.783Z,99857.59
2022-08-25T00:24:56.466Z,99859.53
2022-08-25T00:25:58.114Z,99858.97
2022-08-25T00:27:01.700Z,99856.41
2022-08-25T00:28:08.253Z,99863.66
2022-08-25T00:29:11.136Z,99854.50
2022-08-25T00:30:16.019Z,99857.16
2022-08-25T00:31:20.571Z,99867.03
2022-08-25T00:32:22.351Z,99856.78
2022-08-25T00:33:26.262Z,99867.28
2022-08-25T00:34:33.944Z,99867.28
2022-08-25T00:35:35.650Z,99865.63
2022-08-25T00:36:38.339Z,99869.94
2022-08-25T00:37:40.736Z,99869.13
2022-08-25T00:38:44.768Z,99865.47
2022-08-25T00:39:46.842Z,99875.97
2022-08-25T00:41:05.723Z,99866.19
2022-08-25T00:42:11.898Z,99868.84
2022-08-25T00:43:18.698Z,99872.59
2022-08-25T00:44:20.826Z,99853.19
2022-08-25T00:45:23.190Z,99869.34
2022-08-25T00:46:29.973Z,99865.84
2022-08-25T00:47:31.581Z,99864.91
2022-08-25T00:48:33.205Z,99859.81
2022-08-25T00:49:51.662Z,99856.31
2022-08-25T00:50:53.451Z,99856.06
2022-08-25T00:52:13.164Z,99858.84
2022-08-25T00:53:14.762Z,99854.88
2022-08-25T00:54:20.679Z,99851.50
2022-08-25T00:55:27.339Z,99862.97
2022-08-25T00:56:31.338Z,99857.91
2022-08-25T00:57:51.807Z,99827.91
2022-08-25T00:58:53.584Z,99860.91
2022-08-25T00:59:55.642Z,99857.53
2022-08-25T01:00:58.454Z,99844.63
2022-08-25T01:02:00.679Z,99854.25
2022-08-25T01:03:02.585Z,99840.66
2022-08-25T01:04:04.556Z,99858.84
2022-08-25T01:05:06.857Z,99853.91
2022-08-25T01:06:10.183Z,99853.91
2022-08-25T01:07:15.505Z,99856.69
2022-08-25T01:08:25.523Z,99864.88
2022-08-25T01:09:32.539Z,99860.78
2022-08-25T01:10:37.393Z,99860.28
2022-08-25T01:11:39.168Z,99866.53
2022-08-25T01:12:41.349Z,99869.44
2022-08-25T01:13:45.855Z,99873.25
2022-08-25T01:14:49.951Z,99868.09
2022-08-25T01:15:55.584Z,99878.91
2022-08-25T01:16:59.188Z,99869.41
2022-08-25T01:18:01.174Z,99883.28
2022-08-25T01:19:04.031Z,99880.50
2022-08-25T01:20:05.918Z,99881.22
2022-08-25T01:21:07.488Z,99878.22
2022-08-25T01:22:14.813Z,99868.44
2022-08-25T01:23:16.600Z,99871.44
2022-08-25T01:24:24.368Z,99874.72
2022-08-25T01:25:57.330Z,99872.19
2022-08-25T01:26:59.068Z,99877.00
2022-08-25T01:28:01.806Z,99877.25
2022-08-25T01:29:25.352Z,99880.97
2022-08-25T01:30:27.968Z,99878.44
2022-08-25T01:31:30.899Z,99866.28
2022-08-25T01:32:34.886Z,99866.72
2022-08-25T01:33:36.471Z,99878.03
2022-08-25T01:34:43.222Z,99871.78
2022-08-25T01:35:45.654Z,99876.16
2022-08-25T01:36:47.568Z,99879.41
2022-08-25T01:37:56.557Z,99844.63
2022-08-25T01:38:58.663Z,99865.53
2022-08-25T01:40:00.485Z,99874.56
2022-08-25T01:41:02.083Z,99872.03
2022-08-25T01:42:04.624Z,99869.50
2022-08-25T01:43:15.302Z,99868.91
2022-08-25T01:44:17.924Z,99870.69
2022-08-25T01:45:19.856Z,99874.44
2022-08-25T01:46:21.745Z,99868.41
2022-08-25T01:47:26.335Z,99879.22
2022-08-25T01:48:27.849Z,99874.06
2022-08-25T01:49:29.395Z,99862.81
2022-08-25T01:50:31.321Z,99874.88
2022-08-25T01:51:42.345Z,99874.16
2022-08-25T01:53:00.443Z,99874.28
2022-08-25T01:54:02.033Z,99880.88
2022-08-25T01:55:04.739Z,99870.03
2022-08-25T01:56:15.200Z,99877.00
2022-08-25T01:57:18.332Z,99883.41
2022-08-25T01:58:26.248Z,99884.34
2022-08-25T01:59:28.133Z,99877.69
2022-08-25T02:00:29.827Z,99877.69
2022-08-25T02:01:32.023Z,99877.94
2022-08-25T02:02:33.712Z,99873.72
2022-08-25T02:03:42.052Z,99880.69
2022-08-25T02:04:44.350Z,99885.16
2022-08-25T02:05:48.122Z,99876.44
2022-08-25T02:06:50.359Z,99885.97
2022-08-25T02:07:51.904Z,99881.75
2022-08-25T02:08:55.686Z,99888.97
2022-08-25T02:09:58.723Z,99886.44
2022-08-25T02:11:02.498Z,99885.59
2022-08-25T02:12:04.332Z,99873.53
2022-08-25T02:13:06.731Z,99876.91
2022-08-25T02:14:11.744Z,99832.84
2022-08-25T02:15:14.181Z,99873.41
2022-08-25T02:16:21.013Z,99871.75
2022-08-25T02:17:22.585Z,99873.75
2022-08-25T02:18:24.934Z,99871.44
2022-08-25T02:19:26.608Z,99874.22
2022-08-25T02:20:28.908Z,99876.88
2022-08-25T02:21:30.504Z,99876.88
2022-08-25T02:22:32.552Z,99879.66
2022-08-25T02:23:34.066Z,99878.03
2022-08-25T02:24:35.697Z,99877.50
2022-08-25T02:25:38.834Z,99877.50
2022-08-25T02:26:41.879Z,99882.09
2022-08-25T02:27:43.981Z,99881.34
2022-08-25T02:28:47.772Z,99872.66
2022-08-25T02:29:49.341Z,99881.34
2022-08-25T02:30:52.868Z,99882.50
2022-08-25T02:32:00.307Z,99885.41
2022-08-25T02:33:02.176Z,99881.06
2022-08-25T02:34:04.336Z,99869.00
2022-08-25T02:35:07.804Z,99874.50
2022-08-25T02:36:10.246Z,99873.19
2022-08-25T02:37:12.229Z,99878.34
2022-08-25T02:38:13.855Z,99894.34
2022-08-25T02:39:15.558Z,99866.28
2022-08-25T02:40:17.483Z,99874.31
2022-08-25T02:41:23.718Z,99875.06
2022-08-25T02:42:33.123Z,99874.31
2022-08-25T02:43:34.667Z,99866.50
2022-08-25T02:44:36.275Z,99869.16
2022-08-25T02:45:37.961Z,99863.47
2022-08-25T02:46:39.616Z,99870.22
2022-08-25T02:47:41.788Z,99870.44
2022-08-25T02:48:43.320Z,99870.44
2022-08-25T02:49:44.861Z,99870.56
2022-08-25T02:50:47.968Z,99866.31
2022-08-25T02:51:49.528Z,99873.19
2022-08-25T02:52:51.959Z,99870.56
2022-08-25T02:53:53.542Z,99872.34
2022-08-25T02:54:55.486Z,99875.00
2022-08-25T02:55:57.062Z,99870.88
2022-08-25T02:56:58.592Z,99871.94
2022-08-25T02:58:00.133Z,99871.94
2022-08-25T02:59:02.891Z,99868.03
2022-08-25T03:00:06.010Z,99875.78
2022-08-25T03:01:11.985Z,99875.97
2022-08-25T03:02:14.384Z,99879.69
2022-08-25T03:03:16.412Z,99885.09
2022-08-25T03:04:18.509Z,99880.75
2022-08-25T03:05:20.124Z,99884.47
2022-08-25T03:06:24.097Z,99881.19
2022-08-25T03:07:25.683Z,99872.66
2022-08-25T03:08:27.815Z,99867.88
2022-08-25T03:09:29.373Z,99873.78
2022-08-25T03:10:35.816Z,99876.56
2022-08-25T03:11:40.537Z,99877.28
2022-08-25T03:12:42.357Z,99860.16
2022-08-25T03:13:44.154Z,99879.94
2022-08-25T03:14:45.910Z,99876.56
2022-08-25T03:15:49.360Z,99880.06
2022-08-25T03:16:51.262Z,99879.41
2022-08-25T03:17:53.934Z,99874.22
2022-08-25T03:18:56.330Z,99866.41
2022-08-25T03:19:59.146Z,99863.88
2022-08-25T03:21:00.718Z,99870.00
2022-08-25T03:22:02.290Z,99877.94
2022-08-25T03:23:05.446Z,99875.09
2022-08-25T03:24:07.358Z,99875.50
2022-08-25T03:25:28.252Z,99873.38
2022-08-25T03:26:48.426Z,99868.81
2022-08-25T03:27:50.991Z,99868.81
2022-08-25T03:28:55.361Z,99865.31
2022-08-25T03:29:56.946Z,99870.50
2022-08-25T03:31:00.345Z,99866.78
2022-08-25T03:32:02.197Z,99867.84
2022-08-25T03:33:03.953Z,99860.88
2022-08-25T03:34:05.972Z,99856.53
2022-08-25T03:35:08.807Z,99863.19
2022-08-25T03:36:15.348Z,99834.63
2022-08-25T03:37:16.889Z,99848.91
2022-08-25T03:38:18.470Z,99853.13
2022-08-25T03:39:22.194Z,99845.94
2022-08-25T03:40:24.018Z,99870.47
2022-08-25T03:41:29.173Z,99848.34
2022-08-25T03:42:30.936Z,99850.03
2022-08-25T03:43:32.618Z,99843.16
2022-08-25T03:44:34.124Z,99846.13
2022-08-25T03:45:40.544Z,99851.91
2022-08-25T03:46:51.372Z,99852.75
2022-08-25T03:47:54.150Z,99862.50
2022-08-25T03:48:56.720Z,99860.91
2022-08-25T03:49:58.303Z,99857.66
2022-08-25T03:50:59.890Z,99859.56
2022-08-25T03:52:02.043Z,99866.88
2022-08-25T03:53:03.928Z,99857.13
2022-08-25T03:54:06.118Z,99870.47
2022-08-25T03:55:11.353Z,99858.09
2022-08-25T03:56:13.256Z,99859.56
2022-08-25T03:57:14.915Z,99856.06
2022-08-25T03:58:16.981Z,99854.06
2022-08-25T03:59:18.690Z,99857.53
2022-08-25T04:00:22.850Z,99860.09
2022-08-25T04:01:28.644Z,99860.09
2022-08-25T04:02:33.597Z,99814.34
2022-08-25T04:03:35.972Z,99851.28
2022-08-25T04:04:40.153Z,99846.06
2022-08-25T04:05:42.893Z,99865.38
2022-08-25T04:06:45.050Z,99856.19
2022-08-25T04:07:46.627Z,99861.75
2022-08-25T04:08:48.823Z,99850.91
2022-08-25T04:09:51.068Z,99859.22
2022-08-25T04:10:52.587Z,99861.44
2022-08-25T04:11:54.161Z,99867.44
2022-08-25T04:12:56.114Z,99863.13
2022-08-25T04:14:01.289Z,99869.50
2022-08-25T04:15:07.652Z,99865.13
2022-08-25T04:16:15.003Z,99855.84
2022-08-25T04:17:17.449Z,99861.75
2022-08-25T04:18:19.449Z,99860.91
2022-08-25T04:19:22.001Z,99863.47
2022-08-25T04:20:23.588Z,99856.47
2022-08-25T04:21:26.001Z,99856.78
2022-08-25T04:22:27.635Z,99856.19
2022-08-25T04:23:31.849Z,99856.41
2022-08-25T04:24:33.411Z,99869.03
2022-08-25T04:25:35.145Z,99859.50
2022-08-25T04:26:40.350Z,99862.97
2022-08-25T04:27:42.081Z,99869.44
2022-08-25T04:28:43.771Z,99868.50
2022-08-25T04:29:45.336Z,99873.88
2022-08-25T04:30:51.410Z,99868.91
2022-08-25T04:31:54.872Z,99826.59
2022-08-25T04:32:56.491Z,99873.47
2022-08-25T04:34:01.311Z,99870.00
2022-08-25T04:35:04.343Z,99824.28
2022-08-25T04:36:12.086Z,99865.25
2022-08-25T04:37:14.032Z,99865.25
2022-08-25T04:38:15.951Z,99861.75
2022-08-25T04:39:20.339Z,99865.00
2022-08-25T04:40:29.001Z,99862.34
2022-08-25T04:41:31.275Z,99858.88
2022-08-25T04:42:33.701Z,99858.97
2022-08-25T04:43:36.481Z,99854.41
2022-08-25T04:44:38.062Z,99855.91
2022-08-25T04:45:40.350Z,99853.16
2022-08-25T04:46:42.125Z,99854.53
2022-08-25T04:47:43.688Z,99856.22
2022-08-25T04:48:45.539Z,99847.09
2022-08-25T04:49:47.778Z,99847.09
2022-08-25T04:50:49.425Z,99845.19
2022-08-25T04:51:51.139Z,99842.78
2022-08-25T04:52:52.649Z,99844.22
2022-08-25T04:53:59.419Z,99849.44
2022-08-25T04:55:01.094Z,99842.31
2022-08-25T04:56:06.969Z,99850.16
2022-08-25T04:57:08.719Z,99838.59
2022-08-25T04:58:12.075Z,99835.88
2022-08-25T04:59:18.806Z,99841.16
2022-08-25T05:00:20.522Z,99832.25
2022-08-25T05:01:24.731Z,99837.75
2022-08-25T05:02:26.406Z,99838.41
2022-08-25T05:03:27.954Z,99842.63
2022-08-25T05:04:30.296Z,99838.19
2022-08-25T05:05:35.660Z,99870.75
2022-08-25T05:06:37.586Z,99837.00
2022-08-25T05:07:39.221Z,99836.88
2022-08-25T05:08:41.280Z,99841.22
2022-08-25T05:09:42.828Z,99841.09
2022-08-25T05:10:44.636Z,99842.91
2022-08-25T05:11:47.218Z,99849.78
2022-08-25T05:12:49.144Z,99845.34
2022-08-25T05:13:52.755Z,99845.34
2022-08-25T05:14:54.637Z,99847.84
2022-08-25T05:16:00.245Z,99849.69
2022-08-25T05:17:02.047Z,99845.13
2022-08-25T05:18:03.740Z,99844.47
2022-08-25T05:19:05.546Z,99853.78
2022-08-25T05:20:07.638Z,99857.03
2022-08-25T05:21:12.900Z,99864.03
2022-08-25T05:22:14.536Z,99861.50
2022-08-25T05:23:16.931Z,99862.47
2022-08-25T05:24:19.238Z,99858.03
2022-08-25T05:25:20.821Z,99866.06
2022-08-25T05:26:23.407Z,99854.63
2022-08-25T05:27:25.001Z,99854.53
2022-08-25T05:28:26.774Z,99849.34
2022-08-25T05:29:28.364Z,99856.72
2022-08-25T05:30:30.019Z,99852.06
2022-08-25T05:31:33.051Z,99847.34
2022-08-25T05:32:34.623Z,99850.66
2022-08-25T05:33:37.208Z,99853.03
2022-08-25T05:34:38.768Z,99851.75
2022-08-25T05:35:40.303Z,99842.56
2022-08-25T05:36:43.363Z,99849.19
2022-08-25T05:37:45.241Z,99855.84
2022-08-25T05:38:47.323Z,99856.22
2022-08-25T05:39:49.195Z,99841.91
2022-08-25T05:40:58.175Z,99847.38
2022-08-25T05:41:59.977Z,99848.09
2022-08-25T05:43:01.716Z,99850.28
2022-08-25T05:44:03.621Z,99847.03
2022-08-25T05:45:06.133Z,99844.03
2022-08-25T05:46:09.179Z,99838.25
2022-08-25T05:47:10.765Z,99842.13
2022-08-25T05:48:12.417Z,99838.19
2022-08-25T05:49:13.967Z,99840.25
2022-08-25T05:50:16.234Z,99831.81
2022-08-25T05:51:18.238Z,99835.69
2022-08-25T05:52:20.394Z,99840.50
2022-08-25T05:53:22.841Z,99805.16
2022-08-25T05:54:24.537Z,99832.56
2022-08-25T05:55:26.184Z,99837.41
2022-08-25T05:56:27.777Z,99827.38
2022-08-25T05:57:29.309Z,99829.78
2022-08-25T05:58:31.620Z,99830.84
2022-08-25T05:59:33.314Z,99831.34
2022-08-25T06:00:34.831Z,99824.72
2022-08-25T06:01:55.361Z,99827.72
2022-08-25T06:02:57.645Z,99826.97
2022-08-25T06:04:00.031Z,99829.97
2022-08-25T06:05:02.462Z,99827.41
2022-08-25T06:06:07.563Z,99832.72
2022-08-25T06:07:09.834Z,99817.00
2022-08-25T06:08:11.406Z,99828.44
2022-08-25T06:09:12.977Z,99818.84
2022-08-25T06:10:15.860Z,99815.66
2022-08-25T06:11:19.316Z,99815.59
2022-08-25T06:12:21.755Z,99817.09
2022-08-25T06:13:28.728Z,99825.59
2022-08-25T06:14:30.642Z,99838.84
2022-08-25T06:15:34.027Z,99825.75
2022-08-25T06:16:35.859Z,99822.16
2022-08-25T06:17:40.857Z,99819.63
2022-08-25T06:18:42.394Z,99818.75
2022-08-25T06:19:44.492Z,99814.41
2022-08-25T06:20:46.120Z,99812.78
2022-08-25T06:21:47.743Z,99810.88
2022-08-25T06:22:50.793Z,99808.53
2022-08-25T06:23:52.720Z,99804.38
2022-08-25T06:24:55.044Z,99807.19
2022-08-25T06:25:56.616Z,99811.41
2022-08-25T06:26:58.197Z,99808.03
2022-08-25T06:27:59.928Z,99809.63
2022-08-25T06:29:01.561Z,99809.03
2022-08-25T06:30:07.624Z,99804.91
2022-08-25T06:31:09.995Z,99808.13
2022-08-25T06:32:11.553Z,99802.97
2022-08-25T06:33:14.658Z,99806.25
2022-08-25T06:34:17.090Z,99801.56
2022-08-25T06:35:20.030Z,99798.13
2022-08-25T06:36:21.713Z,99800.44
2022-08-25T06:37:25.296Z,99796.19
2022-08-25T06:38:27.646Z,99751.66
2022-08-25T06:39:29.290Z,99798.59
2022-08-25T06:40:31.094Z,99799.56
2022-08-25T06:41:37.110Z,99792.84
2022-08-25T06:42:38.916Z,99793.66
2022-08-25T06:43:47.998Z,99793.53
2022-08-25T06:44:50.664Z,99798.75
2022-08-25T06:45:52.316Z,99795.38
2022-08-25T06:46:54.126Z,99790.25
2022-08-25T06:47:59.277Z,99797.13
2022-08-25T06:49:00.985Z,99798.59
2022-08-25T06:50:03.969Z,99795.75
2022-08-25T06:51:07.560Z,99793.69
2022-08-25T06:52:12.257Z,99790.72
2022-08-25T06:53:13.882Z,99791.03
2022-08-25T06:54:15.684Z,99791.06
2022-08-25T06:55:17.341Z,99788.16
2022-08-25T06:56:21.116Z,99784.38
2022-08-25T06:57:25.578Z,99788.28
2022-08-25T06:58:28.206Z,99785.59
2022-08-25T06:59:32.501Z,99788.41
2022-08-25T07:00:34.293Z,99794.28
2022-08-25T07:01:36.231Z,99783.09
2022-08-25T07:02:38.579Z,99790.38
2022-08-25T07:03:40.940Z,99783.75
2022-08-25T07:04:42.531Z,99788.94
2022-08-25T07:05:54.503Z,99786.22
2022-08-25T07:06:56.216Z,99780.59
2022-08-25T07:07:57.794Z,99782.03
2022-08-25T07:09:00.212Z,99774.69
2022-08-25T07:10:02.199Z,99778.59
2022-08-25T07:11:16.108Z,99781.31
2022-08-25T07:12:18.433Z,99779.88
2022-08-25T07:13:19.986Z,99782.69
2022-08-25T07:14:22.237Z,99783.03
2022-08-25T07:15:23.857Z,99782.69
2022-08-25T07:16:29.839Z,99782.06
2022-08-25T07:17:32.181Z,99788.50
2022-08-25T07:18:35.216Z,99789.53
2022-08-25T07:19:36.904Z,99788.25
2022-08-25T07:20:40.024Z,99784.91
2022-08-25T07:21:45.707Z,99781.41
2022-08-25T07:22:47.917Z,99783.84
2022-08-25T07:23:49.659Z,99778.66
2022-08-25T07:25:02.967Z,99801.72
2022-08-25T07:27:35.852Z,99783.47
2022-08-25T07:28:38.423Z,99781.78
2022-08-25T07:29:50.132Z,99786.34
2022-08-25T07:30:52.117Z,99779.56
2022-08-25T07:31:53.970Z,99776.84
2022-08-25T07:32:55.776Z,99778.44
2022-08-25T07:34:27.427Z,99789.72
2022-08-25T07:35:37.574Z,99776.84
2022-08-25T07:36:39.608Z,99778.53
2022-08-25T07:37:51.313Z,99777.00
2022-08-25T07:38:53.685Z,99756.56
2022-08-25T07:39:57.147Z,99785.78
2022-08-25T07:41:04.116Z,99784.31
2022-08-25T07:42:07.683Z,99779.13
2022-08-25T07:43:13.752Z,99779.34
2022-08-25T07:44:15.375Z,99778.91
2022-08-25T07:45:20.786Z,99772.00
2022-08-25T07:46:22.823Z,99787.94
2022-08-25T07:47:24.476Z,99778.69
2022-08-25T07:48:26.220Z,99790.53
2022-08-25T07:50:49.893Z,99784.69
2022-08-25T07:52:04.599Z,99781.59
2022-08-25T07:53:09.388Z,99774.19
2022-08-25T07:54:11.382Z,99782.59
2022-08-25T07:55:13.301Z,99780.31
2022-08-25T07:56:20.100Z,99781.06
2022-08-25T07:57:23.886Z,99782.94
2022-08-25T07:58:25.818Z,99783.19
2022-08-25T07:59:27.492Z,99786.22
2022-08-25T08:00:32.122Z,99790.78
2022-08-25T08:01:33.855Z,99783.59
2022-08-25T08:02:42.141Z,99782.66
2022-08-25T08:03:50.395Z,99782.25
2022-08-25T08:04:53.822Z,99777.59
2022-08-25T08:05:56.620Z,99783.00
2022-08-25T08:06:58.159Z,99783.03
2022-08-25T08:08:00.985Z,99785.06
2022-08-25T08:09:03.112Z,99792.25
2022-08-25T08:10:36.975Z,99787.66
2022-08-25T08:11:34.412Z,99793.81
2022-08-25T08:12:36.873Z,99785.72
2022-08-25T08:13:41.402Z,99792.13
2022-08-25T08:14:45.026Z,99801.41
2022-08-25T08:15:47.824Z,99797.56
2022-08-25T08:16:49.923Z,99804.44
2022-08-25T08:17:51.573Z,99794.88
2022-08-25T08:18:53.955Z,99768.06
2022-08-25T08:19:55.632Z,99801.56
2022-08-25T08:20:57.815Z,99792.25
2022-08-25T08:22:02.300Z,99794.63
2022-08-25T08:23:04.529Z,99793.91
2022-08-25T08:24:14.902Z,99792.50
2022-08-25T08:25:27.719Z,99782.78
2022-08-25T08:26:48.081Z,99780.06
2022-08-25T08:27:51.417Z,99774.84
2022-08-25T08:28:56.643Z,99784.03
2022-08-25T08:29:58.765Z,99769.50
2022-08-25T08:31:00.437Z,99783.78
2022-08-25T08:32:03.559Z,99775.41
2022-08-25T08:33:11.265Z,99789.94
2022-08-25T08:34:14.016Z,99778.03
2022-08-25T08:35:18.907Z,99778.16
2022-08-25T08:36:21.942Z,99768.22
2022-08-25T08:37:28.054Z,99767.53
2022-08-25T08:38:30.218Z,99773.06
2022-08-25T08:39:31.896Z,99767.94
2022-08-25T08:41:07.803Z,99763.25
2022-08-25T08:42:31.393Z,99774.31
2022-08-25T08:43:33.572Z,99777.03
2022-08-25T08:44:47.826Z,99774.28
2022-08-25T08:45:53.609Z,99776.28
2022-08-25T08:46:59.083Z,99770.09
2022-08-25T08:48:25.950Z,99764.31
2022-08-25T08:49:50.644Z,99762.56
2022-08-25T08:51:01.033Z,99765.00
2022-08-25T08:52:04.135Z,99766.31
2022-08-25T08:53:10.673Z,99773.34
2022-08-25T08:54:18.735Z,99763.81
2022-08-25T08:56:01.863Z,99766.41
2022-08-25T08:57:25.880Z,99758.63
2022-08-25T08:58:38.599Z,99772.19
2022-08-25T08:59:55.201Z,99764.53
2022-08-25T09:00:58.562Z,99762.56
2022-08-25T09:02:02.757Z,99759.91
2022-08-25T09:03:31.582Z,99759.19
2022-08-25T09:04:45.334Z,99755.72
2022-08-25T09:05:54.899Z,99754.56
2022-08-25T09:06:59.086Z,99768.09
2022-08-25T09:08:10.301Z,99758.19
2022-08-25T09:09:20.171Z,99756.06
2022-08-25T09:10:24.715Z,99760.31
2022-08-25T09:11:54.548Z,99759.09
2022-08-25T09:13:15.506Z,99748.13
2022-08-25T09:14:30.496Z,99752.31
2022-08-25T09:16:34.317Z,99745.72
2022-08-25T09:17:58.109Z,99748.13
2022-08-25T09:19:32.076Z,99751.69
2022-08-25T09:20:53.400Z,99742.47
2022-08-25T09:22:35.053Z,99744.88
2022-08-25T09:23:44.382Z,99740.28
2022-08-25T09:24:55.028Z,99741.50
2022-08-25T09:26:14.698Z,99747.56
2022-08-25T09:27:29.154Z,99748.53
2022-08-25T09:28:51.275Z,99743.84
2022-08-25T09:30:05.327Z,99743.75
2022-08-25T09:31:16.355Z,99741.72
2022-08-25T09:32:24.378Z,99735.75
2022-08-25T09:33:35.639Z,99734.19
2022-08-25T09:34:37.665Z,99736.31
2022-08-25T09:35:41.681Z,99734.34
2022-08-25T09:36:43.229Z,99733.69
2022-08-25T09:37:59.999Z,99722.56
2022-08-25T09:39:01.747Z,99737.59
2022-08-25T09:40:05.157Z,99737.38
2022-08-25T09:41:08.414Z,99736.16
2022-08-25T09:42:10.043Z,99741.31
2022-08-25T09:43:35.304Z,99731.63
2022-08-25T09:44:44.589Z,99722.63
2022-08-25T09:46:03.779Z,99727.78
2022-08-25T09:47:17.397Z,99716.00
2022-08-25T09:48:30.618Z,99721.00
2022-08-25T09:49:37.627Z,99712.09
2022-08-25T09:50:42.830Z,99707.34
2022-08-25T09:51:48.474Z,99715.19
2022-08-25T09:52:54.395Z,99715.53
2022-08-25T09:54:10.464Z,99716.09
2022-08-25T09:55:13.602Z,99678.16
2022-08-25T09:56:21.516Z,99711.38
2022-08-25T09:57:35.671Z,99711.16
2022-08-25T09:58:37.227Z,99712.63
2022-08-25T09:59:39.022Z,99709.31
2022-08-25T10:00:40.992Z,99715.38
2022-08-25T10:01:53.309Z,99714.38
2022-08-25T10:03:22.416Z,99717.63
2022-08-25T10:04:33.079Z,99711.84
2022-08-25T10:05:40.384Z,99701.66
2022-08-25T10:06:47.220Z,99693.47
2022-08-25T10:07:58.714Z,99711.06
2022-08-25T10:09:06.414Z,99705.97
2022-08-25T10:10:32.337Z,99709.94
2022-08-25T10:11:34.186Z,99654.16
2022-08-25T10:12:42.641Z,99699.19
2022-08-25T10:13:47.521Z,99696.22
2022-08-25T10:14:49.296Z,99709.13
2022-08-25T10:16:09.266Z,99682.28
2022-08-25T10:17:31.544Z,99691.94
2022-08-25T10:18:35.670Z,99689.69
2022-08-25T10:19:37.254Z,99692.56
2022-08-25T10:20:38.900Z,99690.19
2022-08-25T10:22:12.152Z,99687.78
2022-08-25T10:23:15.098Z,99695.72
2022-08-25T10:24:16.826Z,99689.44
2022-08-25T10:25:28.244Z,99685.84
2022-08-25T10:26:54.065Z,99687.84
2022-08-25T10:28:15.947Z,99687.78
2022-08-25T10:29:26.346Z,99693.22
2022-08-25T10:30:58.301Z,99686.94
2022-08-25T10:32:12.150Z,99686.41
2022-08-25T10:33:32.153Z,99687.78
2022-08-25T10:34:39.471Z,99682.84
2022-08-25T10:36:15.393Z,99680.88
2022-08-25T10:37:24.965Z,99677.50
2022-08-25T10:38:43.357Z,99681.53
2022-08-25T10:39:56.349Z,99676.69
2022-08-25T10:41:25.190Z,99677.03
2022-08-25T10:42:33.171Z,99681.81
2022-08-25T10:43:53.651Z,99676.94
2022-08-25T10:45:33.038Z,99670.38
2022-08-25T10:46:49.578Z,99662.88
2022-08-25T10:47:57.393Z,99668.97
2022-08-25T10:49:16.244Z,99666.75
2022-08-25T10:50:23.738Z,99655.19
2022-08-25T10:52:03.235Z,99664.31
2022-08-25T10:53:25.494Z,99652.38
2022-08-25T10:54:45.677Z,99653.28
2022-08-25T10:55:50.514Z,99655.19
2022-08-25T10:57:11.513Z,99645.53
2022-08-25T10:58:44.878Z,99644.50
2022-08-25T10:59:52.330Z,99637.50
2022-08-25T11:00:59.469Z,99654.13
2022-08-25T11:02:16.490Z,99647.38
2022-08-25T11:03:35.337Z,99638.94
2022-08-25T11:04:48.881Z,99638.66
2022-08-25T11:05:59.785Z,99633.00
2022-08-25T11:07:15.732Z,99620.34
2022-08-25T11:08:34.564Z,99634.78
2022-08-25T11:09:41.396Z,99630.16
2022-08-25T11:10:50.441Z,99601.59
2022-08-25T11:12:10.332Z,99627.59
2022-08-25T11:13:38.919Z,99624.59
2022-08-25T11:14:49.460Z,99628.69
2022-08-25T11:16:15.962Z,99624.97
2022-08-25T11:17:29.247Z,99627.13
2022-08-25T11:18:32.811Z,99612.25
2022-08-25T11:19:42.022Z,99635.91
2022-08-25T11:20:58.375Z,99625.41
2022-08-25T11:22:24.903Z,99625.09
2022-08-25T11:23:38.411Z,99624.38
2022-08-25T11:24:51.380Z,99622.41
2022-08-25T11:25:59.568Z,99622.19
2022-08-25T11:27:06.261Z,99616.72
2022-08-25T11:28:29.796Z,99615.22
2022-08-25T11:29:36.750Z,99624.25
2022-08-25T11:30:39.106Z,99616.75
2022-08-25T11:31:47.349Z,99616.34
2022-08-25T11:32:55.316Z,99608.47
2022-08-25T11:33:58.299Z,99615.06
2022-08-25T11:35:03.110Z,99615.88
2022-08-25T11:36:29.416Z,99592.50
2022-08-25T11:37:32.576Z,99613.97
2022-08-25T11:39:20.991Z,99610.94
2022-08-25T11:40:31.359Z,99607.81
2022-08-25T11:41:51.909Z,99615.09
2022-08-25T11:43:09.622Z,99607.03
2022-08-25T11:44:54.972Z,99609.56
2022-08-25T11:46:22.251Z,99600.72
2022-08-25T11:47:45.959Z,99607.38
2022-08-25T11:49:24.008Z,99605.72
2022-08-25T11:50:35.490Z,99604.06
2022-08-25T11:51:45.227Z,99606.25
2022-08-25T11:52:53.936Z,99572.66
2022-08-25T11:54:21.378Z,99598.28
2022-08-25T11:55:53.950Z,99599.19
2022-08-25T11:57:30.888Z,99601.91
2022-08-25T11:58:40.985Z,99594.94
2022-08-25T11:59:51.841Z,99599.53
2022-08-25T12:00:58.465Z,99591.53
2022-08-25T12:02:01.678Z,99593.88
2022-08-25T12:03:26.299Z,99595.28
2022-08-25T12:04:44.813Z,99588.03
2022-08-25T12:05:46.939Z,99593.03
2022-08-25T12:07:07.332Z,99585.19
2022-08-25T12:08:27.847Z,99586.00
2022-08-25T12:09:29.464Z,99574.94
2022-08-25T12:10:59.756Z,99573.53
2022-08-25T12:12:29.218Z,99570.53
2022-08-25T12:13:45.497Z,99571.50
2022-08-25T12:14:47.885Z,99573.34
2022-08-25T12:15:49.721Z,99571.63
2022-08-25T12:16:55.302Z,99569.16
2022-08-25T12:18:15.408Z,99560.06
2022-08-25T12:19:23.268Z,99566.59
2022-08-25T12:20:53.831Z,99569.09
2022-08-25T12:22:15.345Z,99561.53
2022-08-25T12:23:17.080Z,99565.63
2022-08-25T12:24:47.607Z,99571.78
2022-08-25T12:25:53.761Z,99549.06
2022-08-25T12:26:59.172Z,99553.09
2022-08-25T12:28:35.170Z,99546.59
2022-08-25T12:30:03.183Z,99545.19
2022-08-25T12:31:17.790Z,99551.94
2022-08-25T12:32:36.758Z,99536.06
2022-08-25T12:34:02.531Z,99557.53
2022-08-25T12:35:26.294Z,99550.50
2022-08-25T12:36:34.207Z,99546.75
2022-08-25T12:37:55.348Z,99551.56
2022-08-25T12:39:16.666Z,99552.91
2022-08-25T12:40:27.632Z,99535.63
2022-08-25T12:41:31.574Z,99541.94
2022-08-25T12:42:39.633Z,99555.38
2022-08-25T12:43:46.729Z,99548.22
2022-08-25T12:45:07.328Z,99545.34
2022-08-25T12:46:25.753Z,99543.13
2022-08-25T12:47:34.455Z,99552.31
2022-08-25T12:48:38.756Z,99549.63
2022-08-25T12:49:40.938Z,99542.50
2022-08-25T12:50:50.282Z,99544.94
2022-08-25T12:51:57.574Z,99540.69
2022-08-25T12:53:11.742Z,99550.41
2022-08-25T12:54:22.527Z,99551.78
2022-08-25T12:55:26.366Z,99551.34
2022-08-25T12:56:57.371Z,99539.78
2022-08-25T12:58:02.297Z,99531.66
2022-08-25T12:59:15.296Z,99535.31
2022-08-25T13:00:23.609Z,99545.78
2022-08-25T13:01:49.365Z,99533.69
2022-08-25T13:03:19.066Z,99541.44
2022-08-25T13:04:36.674Z,99526.94
2022-08-25T13:05:38.289Z,99538.34
2022-08-25T13:07:05.091Z,99526.78
2022-08-25T13:08:18.617Z,99529.66
2022-08-25T13:09:46.423Z,99529.00
2022-08-25T13:11:00.696Z,99538.91
2022-08-25T13:12:22.308Z,99526.31